Terminal Aerodrome Forecast
Issued by NWS Springfield, MO

Home | Current Version | Previous Version | Text Only | Print | Product List | Glossary On
Versions: 1 2 3 4 5 6 7 8 9 10 11 12
000
FTUS43 KSGF 192300
TAFSGF
TAF
KSGF 192337Z 2000/2024 22010KT P6SM SCT080 BKN150
     FM200100 19007KT P6SM SKC
     FM201500 22014G22KT P6SM SKC=

USA.gov is the U.S. government's official web portal to all federal, state and local government web resources and services.